Weather at Baloch Centre Helipad

Public forecast

Using degrees Celsius for public forecast. Weather courtesy of forecast.io.

Closest aviation weather report (METAR) to Baloch Centre Helipad

Closest report is Islamabad International Airport, 41.4 nm (76.7 km) SSW.

2024/06/13 09:30 (retrieved 15 minutes ago)

OPIS 130930Z 36008KT 5000 HZ FEW040 41/09 Q1000 NOSIG

Closest aviation forecast (TAF) to Baloch Centre Helipad

Closest forecast is Islamabad International Airport, 41.4 nm (76.7 km) SSW.

2024/06/13 06:15 (retrieved 4 hours ago)

TAF OPIS 130515Z 1306/1412 04010KT 5000 HZ NSC BECMG 1309/1312 09010G20KT 4000 HZ FEW040 SCT100 TEMPO 1312/1316 32015G30KT 2000 TSRA FEW030CB SCT040 OVC100 PROB30 TEMPO 1321/1324 09010G25KT 3000 -TSRA FEW030CB SCT040 BKN100 BECMG 1400/1403 04010KT 5000 HZ NSC TEMPO 1409/1412 09015G30KT 3000 -TSRA FEW030CB SCT040 BKN100